Pure Air, Missouri
Current Conditions -  °F | °C
As of 12:55 PM on Friday 28 Nov 2014 (Local Time) from KIRK Reporting Station
Clear Clear  
Wind Chill:   Ceiling: Unl
Heat Index:   Visibility: 10mi
Dew Point:   Wind: 15mph
Humidity: 54%   Direction: 220°SW
Pressure: 29.89"   Gusts: NA
Location:  40.2969°N, 92.7524°W
Report Text: KIRK 281855Z AUTO 22013KT 10SM CLR 09/00 A2989 RMK AO2 SLP131 T00890000
Loading
Personal Weather Stations






























Interactive Weather Map New forecast layout! Learn more

10-Day Weather Forecast

Advertisements
Track Severe Weather on mobile